createdAt,value
2023-10-26T00:01:25.697Z,99807.72
2023-10-26T00:04:26.761Z,99820.81
2023-10-26T00:07:02.320Z,99821.78
2023-10-26T00:09:29.443Z,99819.75
2023-10-26T00:11:56.469Z,99817.28
2023-10-26T00:14:23.949Z,99805.38
2023-10-26T00:16:51.186Z,99806.16
2023-10-26T00:19:18.280Z,99799.06
2023-10-26T00:21:45.697Z,99795.84
2023-10-26T00:24:13.682Z,99807.75
2023-10-26T00:26:42.207Z,99803.97
2023-10-26T00:29:29.750Z,99802.47
2023-10-26T00:32:30.788Z,99804.41
2023-10-26T00:35:12.231Z,99797.31
2023-10-26T00:37:40.029Z,99796.47
2023-10-26T00:40:07.686Z,99808.28
2023-10-26T00:42:35.166Z,99803.56
2023-10-26T00:45:02.240Z,99794.97
2023-10-26T00:47:30.039Z,99800.09
2023-10-26T00:49:57.314Z,99802.69
2023-10-26T00:52:44.815Z,99787.88
2023-10-26T00:55:26.088Z,99795.47
2023-10-26T00:57:54.311Z,99784.72
2023-10-26T01:00:41.711Z,99776.53
2023-10-26T01:03:41.886Z,99778.16
2023-10-26T01:06:10.018Z,99775.78
2023-10-26T01:08:37.224Z,99775.38
2023-10-26T01:11:04.928Z,99773.22
2023-10-26T01:13:33.156Z,99768.69
2023-10-26T01:16:00.784Z,99767.06
2023-10-26T01:18:27.909Z,99775.19
2023-10-26T01:20:55.892Z,99779.81
2023-10-26T01:23:23.129Z,99780.78
2023-10-26T01:25:55.811Z,99770.16
2023-10-26T01:28:24.836Z,99767.38
2023-10-26T01:31:11.761Z,99760.56
2023-10-26T01:33:52.407Z,99771.63
2023-10-26T01:36:19.462Z,99769.28
2023-10-26T01:38:46.548Z,99771.44
2023-10-26T01:41:13.472Z,99769.91
2023-10-26T01:43:40.450Z,99776.19
2023-10-26T01:46:27.792Z,99782.00
2023-10-26T01:49:28.802Z,99778.97
2023-10-26T01:52:29.738Z,99771.22
2023-10-26T01:55:19.105Z,99764.25
2023-10-26T01:57:46.205Z,99767.03
2023-10-26T02:00:26.865Z,99778.78
2023-10-26T02:03:27.958Z,99781.78
2023-10-26T02:06:07.319Z,99776.94
2023-10-26T02:08:34.679Z,99789.28
2023-10-26T02:11:01.613Z,99778.84
2023-10-26T02:13:28.857Z,99770.47
2023-10-26T02:15:55.900Z,99767.78
2023-10-26T02:18:23.013Z,99784.25
2023-10-26T02:20:50.362Z,99783.38
2023-10-26T02:23:37.819Z,99769.06
2023-10-26T02:26:18.948Z,99753.16
2023-10-26T02:29:05.764Z,99754.38
2023-10-26T02:32:07.137Z,99763.31
2023-10-26T02:35:07.968Z,99771.50
2023-10-26T02:37:49.522Z,99771.44
2023-10-26T02:40:16.501Z,99772.41
2023-10-26T02:42:43.618Z,99765.09
2023-10-26T02:45:10.914Z,99767.59
2023-10-26T02:47:39.242Z,99753.16
2023-10-26T02:50:07.685Z,99751.25
2023-10-26T02:52:54.762Z,99751.13
2023-10-26T02:55:35.418Z,99762.56
2023-10-26T02:58:02.610Z,99752.75
2023-10-26T03:00:49.876Z,99749.25
2023-10-26T03:03:38.900Z,99758.00
2023-10-26T03:06:06.472Z,99755.84
2023-10-26T03:08:33.577Z,99769.06
2023-10-26T03:11:00.715Z,99780.91
2023-10-26T03:13:28.033Z,99794.25
2023-10-26T03:15:55.452Z,99787.41
2023-10-26T03:18:23.030Z,99778.31
2023-10-26T03:20:50.177Z,99755.81
2023-10-26T03:23:17.552Z,99760.78
2023-10-26T03:25:44.592Z,99752.81
2023-10-26T03:28:11.685Z,99758.19
2023-10-26T03:30:59.016Z,99747.44
2023-10-26T03:33:40.830Z,99743.28
2023-10-26T03:36:17.790Z,99754.94
2023-10-26T03:38:46.188Z,99754.38
2023-10-26T03:41:13.989Z,99762.97
2023-10-26T03:43:41.279Z,99782.00
2023-10-26T03:46:08.848Z,99769.09
2023-10-26T03:48:36.783Z,99785.00
2023-10-26T03:51:24.301Z,99772.94
2023-10-26T03:54:25.116Z,99764.13
2023-10-26T03:57:07.464Z,99770.72
2023-10-26T03:59:54.933Z,99781.03
2023-10-26T04:03:06.320Z,99774.22
2023-10-26T04:05:46.772Z,99775.44
2023-10-26T04:08:14.105Z,99774.56
2023-10-26T04:10:43.598Z,99775.31
2023-10-26T04:13:10.900Z,99780.25
2023-10-26T04:15:38.003Z,99775.78
2023-10-26T04:18:07.397Z,99762.84
2023-10-26T04:20:34.950Z,99754.63
2023-10-26T04:23:02.136Z,99746.88
2023-10-26T04:25:42.106Z,99743.88
2023-10-26T04:28:17.546Z,99745.28
2023-10-26T04:31:04.882Z,99736.72
2023-10-26T04:33:45.543Z,99731.53
2023-10-26T04:36:12.734Z,99728.09
2023-10-26T04:38:40.537Z,99727.78
2023-10-26T04:41:07.637Z,99731.84
2023-10-26T04:43:35.150Z,99739.03
2023-10-26T04:46:02.328Z,99735.97
2023-10-26T04:48:30.229Z,99738.09
2023-10-26T04:51:18.003Z,99743.41
2023-10-26T04:54:19.017Z,99746.97
2023-10-26T04:56:59.465Z,99743.19
2023-10-26T04:59:46.879Z,99756.47
2023-10-26T05:02:48.290Z,99766.00
2023-10-26T05:05:28.484Z,99766.78
2023-10-26T05:07:55.665Z,99758.16
2023-10-26T05:10:42.875Z,99760.94
2023-10-26T05:13:43.986Z,99769.69
2023-10-26T05:16:45.099Z,99750.03
2023-10-26T05:19:25.552Z,99754.19
2023-10-26T05:21:52.790Z,99746.78
2023-10-26T05:24:19.723Z,99746.75
2023-10-26T05:26:47.139Z,99751.50
2023-10-26T05:29:33.916Z,99739.84
2023-10-26T05:32:34.961Z,99733.69
2023-10-26T05:35:15.796Z,99737.13
2023-10-26T05:37:42.898Z,99736.28
2023-10-26T05:40:10.503Z,99744.19
2023-10-26T05:42:58.318Z,99744.63
2023-10-26T05:45:41.379Z,99740.88
2023-10-26T05:48:10.973Z,99742.50
2023-10-26T05:50:57.876Z,99751.28
2023-10-26T05:53:58.877Z,99753.31
2023-10-26T05:57:00.363Z,99768.91
2023-10-26T06:00:00.923Z,99775.75
2023-10-26T06:03:06.014Z,99776.44
2023-10-26T06:05:46.460Z,99785.78
2023-10-26T06:08:13.590Z,99795.78
2023-10-26T06:10:41.426Z,99799.19
2023-10-26T06:13:11.960Z,99802.91
2023-10-26T06:15:38.962Z,99798.91
2023-10-26T06:18:06.225Z,99818.13
2023-10-26T06:20:52.917Z,99805.78
2023-10-26T06:23:34.627Z,99799.66
2023-10-26T06:26:03.238Z,99794.91
2023-10-26T06:28:30.541Z,99788.75
2023-10-26T06:31:24.970Z,99785.84
2023-10-26T06:34:05.561Z,99788.22
2023-10-26T06:36:32.623Z,99773.78
2023-10-26T06:39:00.902Z,99776.19
2023-10-26T06:41:48.129Z,99788.41
2023-10-26T06:44:49.978Z,99792.00
2023-10-26T06:47:31.185Z,99805.13
2023-10-26T06:49:58.109Z,99816.22
2023-10-26T06:52:44.940Z,99805.97
2023-10-26T06:55:30.734Z,99806.25
2023-10-26T06:57:58.535Z,99800.88
2023-10-26T07:00:52.107Z,99797.84
2023-10-26T07:03:40.907Z,99807.19
2023-10-26T07:06:08.206Z,99799.47
2023-10-26T07:08:35.566Z,99785.31
2023-10-26T07:11:22.953Z,99779.78
2023-10-26T07:14:23.945Z,99788.97
2023-10-26T07:17:25.025Z,99776.09
2023-10-26T07:20:25.957Z,99769.88
2023-10-26T07:23:06.504Z,99764.34
2023-10-26T07:25:37.184Z,99763.50
2023-10-26T07:28:04.446Z,99772.59
2023-10-26T07:30:59.126Z,99770.56
2023-10-26T07:33:39.596Z,99776.31
2023-10-26T07:36:08.170Z,99779.25
2023-10-26T07:38:37.825Z,99776.88
2023-10-26T07:41:18.442Z,99788.38
2023-10-26T07:44:19.719Z,99812.19
2023-10-26T07:46:46.629Z,99806.91
2023-10-26T07:49:13.627Z,99791.97
2023-10-26T07:52:00.973Z,99786.91
2023-10-26T07:55:02.111Z,99779.44
2023-10-26T07:58:03.063Z,99781.09
2023-10-26T08:01:04.130Z,99771.59
2023-10-26T08:03:46.007Z,99784.44
2023-10-26T08:06:12.945Z,99780.00
2023-10-26T08:08:39.978Z,99782.78
2023-10-26T08:11:14.914Z,99775.22
2023-10-26T08:13:42.320Z,99776.41
2023-10-26T08:16:40.716Z,99773.47
2023-10-26T08:18:56.438Z,99779.03
2023-10-26T08:21:23.441Z,99788.47
2023-10-26T08:23:50.852Z,99770.31
2023-10-26T08:26:17.703Z,99750.69
2023-10-26T08:29:13.708Z,99765.59
2023-10-26T08:32:17.161Z,99796.72
2023-10-26T08:34:57.656Z,99806.56
2023-10-26T08:37:27.064Z,99815.56
2023-10-26T08:39:54.854Z,99824.16
2023-10-26T08:42:21.909Z,99820.63
2023-10-26T08:44:49.779Z,99822.16
2023-10-26T08:47:21.219Z,99818.22
2023-10-26T08:50:08.172Z,99819.63
2023-10-26T08:53:14.089Z,99823.50
2023-10-26T08:55:57.892Z,99842.41
2023-10-26T08:58:24.988Z,99853.38
2023-10-26T09:01:05.848Z,99838.19
2023-10-26T09:03:46.911Z,99823.97
2023-10-26T09:06:14.091Z,99824.41
2023-10-26T09:08:41.103Z,99831.03
2023-10-26T09:11:23.788Z,99845.72
2023-10-26T09:13:51.591Z,99856.56
2023-10-26T09:16:18.677Z,99863.81
2023-10-26T09:18:51.348Z,99863.66
2023-10-26T09:21:18.829Z,99865.81
2023-10-26T09:23:46.595Z,99870.34
2023-10-26T09:26:14.662Z,99873.72
2023-10-26T09:29:11.012Z,99860.50
2023-10-26T09:32:12.139Z,99846.91
2023-10-26T09:34:52.617Z,99847.94
2023-10-26T09:37:19.626Z,99850.50
2023-10-26T09:40:14.727Z,99852.59
2023-10-26T09:43:17.024Z,99836.88
2023-10-26T09:45:56.729Z,99837.47
2023-10-26T09:48:26.300Z,99837.47
2023-10-26T09:51:13.091Z,99830.00
2023-10-26T09:54:12.171Z,99848.41
2023-10-26T09:56:42.231Z,99851.47
2023-10-26T09:59:29.222Z,99859.53
2023-10-26T10:02:34.082Z,99867.34
2023-10-26T10:05:33.235Z,99869.88
2023-10-26T10:08:00.231Z,99878.50
2023-10-26T10:10:27.224Z,99874.75
2023-10-26T10:12:54.571Z,99866.91
2023-10-26T10:15:44.420Z,99873.34
2023-10-26T10:18:12.216Z,99869.97
2023-10-26T10:20:41.938Z,99861.56
2023-10-26T10:23:09.955Z,99845.47
2023-10-26T10:25:52.408Z,99831.28
2023-10-26T10:28:19.975Z,99833.50
2023-10-26T10:31:10.058Z,99827.63
2023-10-26T10:34:02.105Z,99811.66
2023-10-26T10:36:29.348Z,99803.44
2023-10-26T10:39:23.910Z,99790.22
2023-10-26T10:41:51.958Z,99780.88
2023-10-26T10:44:21.392Z,99777.13
2023-10-26T10:46:49.509Z,99783.44
2023-10-26T10:49:40.412Z,99793.91
2023-10-26T10:52:41.250Z,99802.53
2023-10-26T10:55:38.732Z,99822.56
2023-10-26T10:58:06.136Z,99834.59
2023-10-26T11:01:01.213Z,99841.16
2023-10-26T11:03:42.497Z,99822.22
2023-10-26T11:06:22.453Z,99816.63
2023-10-26T11:08:49.440Z,99801.00
2023-10-26T11:11:28.390Z,99806.31
2023-10-26T11:14:13.517Z,99809.41
2023-10-26T11:16:42.998Z,99805.38
2023-10-26T11:19:10.133Z,99804.22
2023-10-26T11:21:37.234Z,99819.63
2023-10-26T11:24:04.911Z,99832.34
2023-10-26T11:26:31.904Z,99824.50
2023-10-26T11:29:19.297Z,99830.63
2023-10-26T11:32:37.116Z,99824.56
2023-10-26T11:35:17.771Z,99811.38
2023-10-26T11:37:56.694Z,99807.25
2023-10-26T11:40:31.903Z,99801.38
2023-10-26T11:43:06.713Z,99794.84
2023-10-26T11:46:03.347Z,99794.53
2023-10-26T11:49:07.152Z,99782.94
2023-10-26T11:52:08.457Z,99783.84
2023-10-26T11:55:09.102Z,99777.13
2023-10-26T11:58:10.151Z,99778.41
2023-10-26T12:01:11.127Z,99763.47
2023-10-26T12:04:12.122Z,99783.28
2023-10-26T12:07:13.513Z,99777.13
2023-10-26T12:09:54.020Z,99772.03
2023-10-26T12:12:21.123Z,99772.53
2023-10-26T12:14:48.947Z,99762.25
2023-10-26T12:17:16.120Z,99749.91
2023-10-26T12:19:43.303Z,99734.66
2023-10-26T12:22:10.663Z,99734.06
2023-10-26T12:24:37.706Z,99720.06
2023-10-26T12:27:04.972Z,99708.44
2023-10-26T12:29:52.157Z,99714.47
2023-10-26T12:32:53.189Z,99729.28
2023-10-26T12:35:29.396Z,99725.59
2023-10-26T12:37:56.515Z,99718.75
2023-10-26T12:40:23.618Z,99716.72
2023-10-26T12:42:58.935Z,99705.63
2023-10-26T12:45:46.193Z,99696.47
2023-10-26T12:48:47.163Z,99699.28
2023-10-26T12:51:48.269Z,99690.75
2023-10-26T12:54:49.194Z,99694.19
2023-10-26T12:57:51.188Z,99689.88
2023-10-26T13:00:53.263Z,99678.66
2023-10-26T13:03:56.598Z,99677.56
2023-10-26T13:06:59.327Z,99672.44
2023-10-26T13:09:42.515Z,99675.91
2023-10-26T13:12:10.536Z,99676.16
2023-10-26T13:14:38.284Z,99676.56
2023-10-26T13:17:06.423Z,99669.94
2023-10-26T13:19:33.568Z,99666.19
2023-10-26T13:22:00.972Z,99665.13
2023-10-26T13:24:28.415Z,99666.94
2023-10-26T13:26:55.595Z,99654.88
2023-10-26T13:29:51.245Z,99658.91
2023-10-26T13:32:52.229Z,99659.50
2023-10-26T13:35:31.408Z,99663.38
2023-10-26T13:37:58.505Z,99665.22
2023-10-26T13:40:25.936Z,99668.09
2023-10-26T13:42:53.197Z,99669.25
2023-10-26T13:45:20.461Z,99669.97
2023-10-26T13:48:08.183Z,99677.78
2023-10-26T13:51:02.310Z,99675.56
2023-10-26T13:53:57.183Z,99672.75
2023-10-26T13:56:58.178Z,99658.25
2023-10-26T13:59:59.167Z,99649.22
2023-10-26T14:03:06.288Z,99655.13
2023-10-26T14:05:51.290Z,99657.63
2023-10-26T14:08:18.812Z,99641.13
2023-10-26T14:10:58.538Z,99637.75
2023-10-26T14:13:25.455Z,99641.59
2023-10-26T14:15:52.505Z,99623.69
2023-10-26T14:18:19.779Z,99624.31
2023-10-26T14:20:46.788Z,99617.81
2023-10-26T14:23:13.788Z,99615.78
2023-10-26T14:25:42.919Z,99610.16
2023-10-26T14:28:10.088Z,99610.47
2023-10-26T14:30:57.274Z,99613.28
2023-10-26T14:33:37.901Z,99615.53
2023-10-26T14:36:07.214Z,99608.31
2023-10-26T14:38:34.519Z,99609.63
2023-10-26T14:41:02.170Z,99608.91
2023-10-26T14:43:29.633Z,99593.16
2023-10-26T14:45:56.797Z,99584.56
2023-10-26T14:48:44.321Z,99583.75
2023-10-26T14:51:45.232Z,99580.69
2023-10-26T14:54:25.835Z,99590.16
2023-10-26T14:57:13.606Z,99585.19
2023-10-26T15:00:15.234Z,99581.69
2023-10-26T15:03:16.238Z,99581.75
2023-10-26T15:06:17.220Z,99582.91
2023-10-26T15:10:20.669Z,99587.47
2023-10-26T15:12:31.175Z,99587.81
2023-10-26T15:14:58.875Z,99593.69
2023-10-26T15:17:26.751Z,99601.13
2023-10-26T15:19:54.385Z,99605.50
2023-10-26T15:22:21.430Z,99604.78
2023-10-26T15:24:48.878Z,99583.75
2023-10-26T15:27:15.994Z,99583.38
2023-10-26T15:30:03.297Z,99576.81
2023-10-26T15:33:04.265Z,99568.81
2023-10-26T15:35:32.099Z,99561.78
2023-10-26T15:37:59.111Z,99561.66
2023-10-26T15:40:30.174Z,99570.13
2023-10-26T15:42:57.192Z,99565.06
2023-10-26T15:45:24.438Z,99570.44
2023-10-26T15:47:52.466Z,99585.19
2023-10-26T15:50:19.467Z,99587.28
2023-10-26T15:52:46.524Z,99583.63
2023-10-26T15:55:33.299Z,99588.13
2023-10-26T15:58:34.324Z,99592.53
2023-10-26T16:01:35.353Z,99569.06
2023-10-26T16:04:39.322Z,99569.06
2023-10-26T16:07:40.334Z,99574.09
2023-10-26T16:10:21.089Z,99568.53
2023-10-26T16:12:50.775Z,99570.63
2023-10-26T16:15:21.541Z,99562.75
2023-10-26T16:17:48.835Z,99553.19
2023-10-26T16:20:15.891Z,99557.63
2023-10-26T16:22:43.884Z,99558.56
2023-10-26T16:25:11.280Z,99563.41
2023-10-26T16:27:38.369Z,99561.88
2023-10-26T16:30:25.327Z,99548.47
2023-10-26T16:33:06.197Z,99535.03
2023-10-26T16:35:33.271Z,99542.69
2023-10-26T16:38:00.391Z,99555.22
2023-10-26T16:40:28.445Z,99546.41
2023-10-26T16:42:55.511Z,99539.91
2023-10-26T16:45:22.585Z,99535.63
2023-10-26T16:47:55.857Z,99529.75
2023-10-26T16:50:23.936Z,99517.78
2023-10-26T16:52:51.671Z,99514.38
2023-10-26T16:55:18.882Z,99515.69
2023-10-26T16:57:46.000Z,99507.50
2023-10-26T17:00:34.312Z,99503.00
2023-10-26T17:03:35.676Z,99503.41
2023-10-26T17:06:29.653Z,99510.56
2023-10-26T17:09:30.311Z,99523.63
2023-10-26T17:12:28.304Z,99529.59
2023-10-26T17:15:17.559Z,99524.00
2023-10-26T17:18:18.292Z,99515.53
2023-10-26T17:20:59.102Z,99501.88
2023-10-26T17:23:26.241Z,99493.47
2023-10-26T17:25:53.654Z,99466.38
2023-10-26T17:28:20.564Z,99463.19
2023-10-26T17:31:07.480Z,99460.38
2023-10-26T17:34:08.364Z,99448.00
2023-10-26T17:36:48.928Z,99431.06
2023-10-26T17:39:16.015Z,99411.03
2023-10-26T17:41:43.008Z,99413.28
2023-10-26T17:44:09.945Z,99413.88
2023-10-26T17:46:37.227Z,99414.59
2023-10-26T17:49:04.400Z,99405.81
2023-10-26T17:51:33.999Z,99402.47
2023-10-26T17:54:05.532Z,99399.09
2023-10-26T17:56:35.423Z,99402.84
2023-10-26T17:59:26.603Z,99418.31
2023-10-26T18:02:27.393Z,99422.69
2023-10-26T18:05:28.379Z,99426.25
2023-10-26T18:08:08.985Z,99421.94
2023-10-26T18:10:36.004Z,99408.31
2023-10-26T18:13:03.180Z,99401.38
2023-10-26T18:15:50.741Z,99407.72
2023-10-26T18:18:46.720Z,99402.88
2023-10-26T18:21:40.445Z,99415.63
2023-10-26T18:24:21.048Z,99411.13
2023-10-26T18:26:48.132Z,99405.56
2023-10-26T18:29:15.150Z,99404.22
2023-10-26T18:31:43.521Z,99403.28
2023-10-26T18:34:10.735Z,99411.13
2023-10-26T18:36:40.321Z,99415.63
2023-10-26T18:39:07.604Z,99404.22
2023-10-26T18:41:34.798Z,99415.97
2023-10-26T18:44:02.160Z,99412.47
2023-10-26T18:46:29.294Z,99417.16
2023-10-26T18:48:57.178Z,99402.91
2023-10-26T18:51:24.530Z,99396.91
2023-10-26T18:53:52.222Z,99407.00
2023-10-26T18:56:22.646Z,99400.66
2023-10-26T18:59:09.380Z,99392.06
2023-10-26T19:02:10.410Z,99386.44
2023-10-26T19:05:12.378Z,99402.50
2023-10-26T19:07:53.569Z,99394.63
2023-10-26T19:10:20.653Z,99384.16
2023-10-26T19:12:52.939Z,99389.47
2023-10-26T19:15:40.448Z,99393.56
2023-10-26T19:18:40.031Z,99380.28
2023-10-26T19:21:08.556Z,99365.75
2023-10-26T19:23:35.723Z,99360.34
2023-10-26T19:26:03.166Z,99364.44
2023-10-26T19:28:31.171Z,99365.16
2023-10-26T19:31:19.565Z,99374.34
2023-10-26T19:34:20.896Z,99362.75
2023-10-26T19:37:21.433Z,99368.16
2023-10-26T19:40:06.429Z,99370.94
2023-10-26T19:42:36.627Z,99364.81
2023-10-26T19:45:09.364Z,99368.19
2023-10-26T19:47:39.133Z,99371.94
2023-10-26T19:50:08.390Z,99372.66
2023-10-26T19:52:36.219Z,99372.50
2023-10-26T19:55:04.284Z,99370.06
2023-10-26T19:57:32.289Z,99363.91
2023-10-26T20:00:23.423Z,99358.50
2023-10-26T20:03:24.542Z,99345.06
2023-10-26T20:06:26.537Z,99332.69
2023-10-26T20:09:07.493Z,99341.66
2023-10-26T20:11:34.601Z,99346.16
2023-10-26T20:14:04.025Z,99346.84
2023-10-26T20:16:51.728Z,99324.59
2023-10-26T20:19:52.598Z,99310.63
2023-10-26T20:22:53.476Z,99306.09
2023-10-26T20:25:27.128Z,99303.28
2023-10-26T20:27:54.636Z,99288.38
2023-10-26T20:30:21.668Z,99289.06
2023-10-26T20:32:50.052Z,99291.16
2023-10-26T20:35:18.139Z,99278.03
2023-10-26T20:37:45.111Z,99286.31
2023-10-26T20:40:13.490Z,99282.19
2023-10-26T20:42:44.268Z,99276.34
2023-10-26T20:45:31.428Z,99267.19
2023-10-26T20:48:32.785Z,99268.53
2023-10-26T20:51:30.266Z,99259.00
2023-10-26T20:53:57.217Z,99257.53
2023-10-26T20:56:24.356Z,99250.41
2023-10-26T20:59:11.444Z,99250.56
2023-10-26T21:02:12.508Z,99245.97
2023-10-26T21:05:13.479Z,99238.41
2023-10-26T21:07:54.883Z,99233.94
2023-10-26T21:10:22.395Z,99221.41
2023-10-26T21:12:49.623Z,99207.03
2023-10-26T21:15:36.555Z,99205.22
2023-10-26T21:18:37.707Z,99204.06
2023-10-26T21:21:08.229Z,99182.56
2023-10-26T21:23:36.530Z,99183.13
2023-10-26T21:26:08.233Z,99198.81
2023-10-26T21:28:37.741Z,99185.53
2023-10-26T21:31:04.892Z,99179.00
2023-10-26T21:33:32.646Z,99171.50
2023-10-26T21:35:59.901Z,99169.69
2023-10-26T21:38:28.188Z,99173.56
2023-10-26T21:40:55.317Z,99180.31
2023-10-26T21:43:42.507Z,99171.19
2023-10-26T21:46:33.645Z,99156.41
2023-10-26T21:49:00.822Z,99154.75
2023-10-26T21:51:27.827Z,99131.16
2023-10-26T21:53:54.779Z,99133.81
2023-10-26T21:56:21.815Z,99148.16
2023-10-26T21:58:49.045Z,99147.03
2023-10-26T22:01:16.155Z,99149.19
2023-10-26T22:03:48.281Z,99154.38
2023-10-26T22:06:19.595Z,99166.94
2023-10-26T22:08:46.523Z,99156.34
2023-10-26T22:11:13.465Z,99138.19
2023-10-26T22:13:40.471Z,99111.22
2023-10-26T22:16:27.645Z,99096.97
2023-10-26T22:19:28.508Z,99084.09
2023-10-26T22:22:29.520Z,99093.66
2023-10-26T22:25:10.865Z,99077.41
2023-10-26T22:27:37.833Z,99097.22
2023-10-26T22:30:05.586Z,99085.00
2023-10-26T22:32:32.694Z,99067.38
2023-10-26T22:34:59.846Z,99081.88
2023-10-26T22:37:26.829Z,99063.72
2023-10-26T22:39:55.052Z,99061.28
2023-10-26T22:42:42.862Z,99063.81
2023-10-26T22:45:43.598Z,99061.34
2023-10-26T22:48:25.017Z,99046.41
2023-10-26T22:50:51.955Z,99053.84
2023-10-26T22:53:19.040Z,99060.34
2023-10-26T22:55:46.944Z,99058.69
2023-10-26T22:58:13.962Z,99050.28
2023-10-26T23:01:01.812Z,99037.66
2023-10-26T23:04:02.603Z,99051.84
2023-10-26T23:07:03.601Z,99044.50
2023-10-26T23:09:44.234Z,99015.56
2023-10-26T23:12:11.265Z,99006.06
2023-10-26T23:14:58.597Z,99000.63
2023-10-26T23:17:59.594Z,99000.31
2023-10-26T23:20:40.120Z,99002.75
2023-10-26T23:23:07.077Z,98994.69
2023-10-26T23:25:41.705Z,98988.50
2023-10-26T23:28:08.803Z,98987.50
2023-10-26T23:30:36.730Z,98982.56
2023-10-26T23:33:04.094Z,98955.19
2023-10-26T23:35:32.247Z,98959.16
2023-10-26T23:37:59.298Z,98950.16
2023-10-26T23:40:26.331Z,98941.97
2023-10-26T23:43:14.597Z,98945.97
2023-10-26T23:46:15.603Z,98940.34
2023-10-26T23:48:44.669Z,98935.66
2023-10-26T23:51:11.730Z,98934.06
2023-10-26T23:53:38.696Z,98925.97
2023-10-26T23:56:05.967Z,98925.31
2023-10-26T23:58:33.062Z,98929.69
